Alton, Alabama
Current Conditions -  °F | °C
As of 11:53 AM on Tuesday 27 Jan 2015 (Local Time) from KBHM Reporting Station
Scattered Clouds Scattered Clouds  
Wind Chill: 52°   Ceiling: Unl
Heat Index: 52°   Visibility: 10mi
Dew Point: 32°   Wind: 17mph
Humidity: 47%   Direction: 320°NW
Pressure: 30.05"   Gusts: NA
Location:  33.58°N, 86.64°W
Report Text: KBHM 271753Z 32015KT 10SM SCT043 11/00 A3005 RMK AO2 SLP176 T01110000 10122 20006 50006
Loading
Personal Weather Stations






























Interactive Weather Map New forecast layout! Learn more

10-Day Weather Forecast

Advertisements
Track Severe Weather on mobile